sensor_id;sensor_type;location;lat;lon;timestamp;pressure;altitude;pressure_sealevel;temperature;humidity
38780;BME280;29273;49.962;9.768;2023-02-18T00:02:07;100446.91;;;13.98;61.89
38780;BME280;29273;49.962;9.768;2023-02-18T00:04:34;100450.19;;;14.00;61.84
38780;BME280;29273;49.962;9.768;2023-02-18T00:06:59;100448.34;;;14.01;61.66
38780;BME280;29273;49.962;9.768;2023-02-18T00:09:25;100453.69;;;14.01;61.68
38780;BME280;29273;49.962;9.768;2023-02-18T00:11:51;100454.28;;;14.03;62.23
38780;BME280;29273;49.962;9.768;2023-02-18T00:14:16;100449.97;;;14.02;62.65
38780;BME280;29273;49.962;9.768;2023-02-18T00:16:43;100443.63;;;14.03;62.50
38780;BME280;29273;49.962;9.768;2023-02-18T00:19:17;100444.84;;;14.07;62.20
38780;BME280;29273;49.962;9.768;2023-02-18T00:21:43;100441.38;;;14.00;63.09
38780;BME280;29273;49.962;9.768;2023-02-18T00:24:12;100450.19;;;14.00;63.43
38780;BME280;29273;49.962;9.768;2023-02-18T00:26:39;100454.09;;;13.98;63.33
38780;BME280;29273;49.962;9.768;2023-02-18T00:29:05;100452.66;;;13.95;63.70
38780;BME280;29273;49.962;9.768;2023-02-18T00:31:33;100449.78;;;13.97;63.48
38780;BME280;29273;49.962;9.768;2023-02-18T00:34:00;100448.38;;;13.94;63.99
38780;BME280;29273;49.962;9.768;2023-02-18T00:36:27;100448.56;;;13.93;63.99
38780;BME280;29273;49.962;9.768;2023-02-18T00:38:58;100453.50;;;13.96;63.80
38780;BME280;29273;49.962;9.768;2023-02-18T00:41:26;100441.59;;;13.92;63.93
38780;BME280;29273;49.962;9.768;2023-02-18T00:43:53;100448.38;;;13.87;64.38
38780;BME280;29273;49.962;9.768;2023-02-18T00:46:20;100446.75;;;13.86;64.60
38780;BME280;29273;49.962;9.768;2023-02-18T00:48:46;100442.66;;;13.84;64.73
38780;BME280;29273;49.962;9.768;2023-02-18T00:51:12;100438.56;;;13.81;65.01
38780;BME280;29273;49.962;9.768;2023-02-18T00:53:38;100446.53;;;13.81;64.96
38780;BME280;29273;49.962;9.768;2023-02-18T00:56:05;100441.00;;;13.83;64.99
38780;BME280;29273;49.962;9.768;2023-02-18T00:58:31;100440.63;;;13.79;64.92
38780;BME280;29273;49.962;9.768;2023-02-18T01:00:58;100437.13;;;13.79;64.82
38780;BME280;29273;49.962;9.768;2023-02-18T01:03:24;100436.50;;;13.77;64.88
38780;BME280;29273;49.962;9.768;2023-02-18T01:05:51;100439.16;;;13.77;65.27
38780;BME280;29273;49.962;9.768;2023-02-18T01:08:18;100444.69;;;13.75;65.18
38780;BME280;29273;49.962;9.768;2023-02-18T01:10:46;100442.66;;;13.77;64.99
38780;BME280;29273;49.962;9.768;2023-02-18T01:13:12;100446.75;;;13.73;65.00
38780;BME280;29273;49.962;9.768;2023-02-18T01:15:39;100445.09;;;13.72;65.33
38780;BME280;29273;49.962;9.768;2023-02-18T01:18:05;100450.66;;;13.71;65.19
38780;BME280;29273;49.962;9.768;2023-02-18T01:20:36;100445.53;;;13.76;64.63
38780;BME280;29273;49.962;9.768;2023-02-18T01:23:03;100443.69;;;13.69;65.00
38780;BME280;29273;49.962;9.768;2023-02-18T01:25:28;100440.44;;;13.67;65.14
38780;BME280;29273;49.962;9.768;2023-02-18T01:27:54;100445.97;;;13.66;64.95
38780;BME280;29273;49.962;9.768;2023-02-18T01:30:21;100445.97;;;13.66;65.43
38780;BME280;29273;49.962;9.768;2023-02-18T01:32:47;100438.19;;;13.64;65.43
38780;BME280;29273;49.962;9.768;2023-02-18T01:35:18;100434.91;;;13.69;64.25
38780;BME280;29273;49.962;9.768;2023-02-18T01:37:43;100436.31;;;13.65;65.25
38780;BME280;29273;49.962;9.768;2023-02-18T01:40:12;100433.25;;;13.68;64.98
38780;BME280;29273;49.962;9.768;2023-02-18T01:42:38;100431.00;;;13.65;65.01
38780;BME280;29273;49.962;9.768;2023-02-18T01:50:51;100427.13;;;13.67;64.22
38780;BME280;29273;49.962;9.768;2023-02-18T01:53:21;100425.47;;;13.66;64.39
38780;BME280;29273;49.962;9.768;2023-02-18T01:55:50;100426.94;;;13.62;64.84
38780;BME280;29273;49.962;9.768;2023-02-18T01:58:16;100425.88;;;13.63;64.93
38780;BME280;29273;49.962;9.768;2023-02-18T02:00:44;100421.59;;;13.62;65.18
38780;BME280;29273;49.962;9.768;2023-02-18T02:03:10;100419.94;;;13.61;65.20
38780;BME280;29273;49.962;9.768;2023-02-18T02:05:35;100407.88;;;13.59;64.90
38780;BME280;29273;49.962;9.768;2023-02-18T02:08:01;100414.63;;;13.61;65.02
38780;BME280;29273;49.962;9.768;2023-02-18T02:13:33;100411.16;;;13.61;63.98
38780;BME280;29273;49.962;9.768;2023-02-18T02:16:28;100408.06;;;13.57;64.37
38780;BME280;29273;49.962;9.768;2023-02-18T02:27:38;100371.03;;;13.56;63.53
38780;BME280;29273;49.962;9.768;2023-02-18T02:30:35;100377.19;;;13.56;63.46
38780;BME280;29273;49.962;9.768;2023-02-18T02:33:28;100380.84;;;13.55;63.70
38780;BME280;29273;49.962;9.768;2023-02-18T02:36:14;100374.53;;;13.49;64.00
38780;BME280;29273;49.962;9.768;2023-02-18T02:41:31;100380.25;;;13.53;63.21
38780;BME280;29273;49.962;9.768;2023-02-18T02:46:40;100378.00;;;13.50;63.55
38780;BME280;29273;49.962;9.768;2023-02-18T02:49:23;100377.59;;;13.53;63.25
38780;BME280;29273;49.962;9.768;2023-02-18T02:51:59;100385.78;;;13.51;63.22
38780;BME280;29273;49.962;9.768;2023-02-18T02:54:27;100389.88;;;13.47;63.37
38780;BME280;29273;49.962;9.768;2023-02-18T03:00:05;100379.66;;;13.51;62.94
38780;BME280;29273;49.962;9.768;2023-02-18T03:03:01;100373.28;;;13.45;63.15
38780;BME280;29273;49.962;9.768;2023-02-18T03:08:50;100370.41;;;13.47;62.70
38780;BME280;29273;49.962;9.768;2023-02-18T03:11:20;100387.84;;;13.43;62.80
38780;BME280;29273;49.962;9.768;2023-02-18T03:19:27;100377.38;;;13.48;62.57
38780;BME280;29273;49.962;9.768;2023-02-18T03:22:10;100388.44;;;13.51;62.35
38780;BME280;29273;49.962;9.768;2023-02-18T03:24:40;100383.31;;;13.50;62.53
38780;BME280;29273;49.962;9.768;2023-02-18T03:27:15;100375.72;;;13.54;62.11
38780;BME280;29273;49.962;9.768;2023-02-18T03:29:44;100385.78;;;13.51;61.82
38780;BME280;29273;49.962;9.768;2023-02-18T03:32:13;100380.25;;;13.53;61.75
38780;BME280;29273;49.962;9.768;2023-02-18T03:34:43;100368.78;;;13.53;61.53
38780;BME280;29273;49.962;9.768;2023-02-18T03:37:11;100376.16;;;13.50;61.41
38780;BME280;29273;49.962;9.768;2023-02-18T03:39:40;100385.38;;;13.55;61.54
38780;BME280;29273;49.962;9.768;2023-02-18T03:42:07;100383.13;;;13.51;61.28
38780;BME280;29273;49.962;9.768;2023-02-18T03:44:32;100384.13;;;13.50;61.40
38780;BME280;29273;49.962;9.768;2023-02-18T03:46:58;100386.59;;;13.52;61.33
38780;BME280;29273;49.962;9.768;2023-02-18T03:49:23;100390.28;;;13.51;61.54
38780;BME280;29273;49.962;9.768;2023-02-18T03:51:49;100392.09;;;13.50;61.67
38780;BME280;29273;49.962;9.768;2023-02-18T03:54:14;100386.59;;;13.52;61.47
38780;BME280;29273;49.962;9.768;2023-02-18T03:56:41;100394.56;;;13.52;61.69
38780;BME280;29273;49.962;9.768;2023-02-18T03:59:07;100395.19;;;13.54;61.81
38780;BME280;29273;49.962;9.768;2023-02-18T04:01:33;100386.38;;;13.54;61.82
38780;BME280;29273;49.962;9.768;2023-02-18T04:03:58;100389.69;;;13.56;62.03
38780;BME280;29273;49.962;9.768;2023-02-18T04:06:24;100382.72;;;13.55;61.87
38780;BME280;29273;49.962;9.768;2023-02-18T04:08:49;100383.72;;;13.54;62.00
38780;BME280;29273;49.962;9.768;2023-02-18T04:11:15;100382.72;;;13.55;61.68
38780;BME280;29273;49.962;9.768;2023-02-18T04:13:40;100368.59;;;13.54;61.89
38780;BME280;29273;49.962;9.768;2023-02-18T04:16:06;100388.84;;;13.55;61.98
38780;BME280;29273;49.962;9.768;2023-02-18T04:18:32;100385.38;;;13.55;61.97
38780;BME280;29273;49.962;9.768;2023-02-18T04:20:57;100390.69;;;13.55;61.96
38780;BME280;29273;49.962;9.768;2023-02-18T04:23:23;100392.75;;;13.53;61.71
38780;BME280;29273;49.962;9.768;2023-02-18T04:25:48;100385.38;;;13.55;61.61
38780;BME280;29273;49.962;9.768;2023-02-18T04:28:15;100395.19;;;13.54;61.42
38780;BME280;29273;49.962;9.768;2023-02-18T04:30:45;100390.88;;;13.60;61.53
38780;BME280;29273;49.962;9.768;2023-02-18T04:33:11;100393.34;;;13.55;61.53
38780;BME280;29273;49.962;9.768;2023-02-18T04:35:37;100399.47;;;13.55;61.76
38780;BME280;29273;49.962;9.768;2023-02-18T04:38:04;100404.00;;;13.55;61.46
38780;BME280;29273;49.962;9.768;2023-02-18T04:40:30;100393.34;;;13.55;61.53
38780;BME280;29273;49.962;9.768;2023-02-18T04:42:59;100389.03;;;13.60;61.26
38780;BME280;29273;49.962;9.768;2023-02-18T04:45:25;100391.28;;;13.57;61.37
38780;BME280;29273;49.962;9.768;2023-02-18T04:47:52;100388.63;;;13.57;61.45
38780;BME280;29273;49.962;9.768;2023-02-18T04:50:18;100383.91;;;13.59;61.79
38780;BME280;29273;49.962;9.768;2023-02-18T04:52:44;100392.94;;;13.58;61.79
38780;BME280;29273;49.962;9.768;2023-02-18T04:55:09;100389.44;;;13.57;62.04
38780;BME280;29273;49.962;9.768;2023-02-18T04:57:35;100384.97;;;13.58;61.83
38780;BME280;29273;49.962;9.768;2023-02-18T05:00:00;100382.28;;;13.58;62.23
38780;BME280;29273;49.962;9.768;2023-02-18T05:02:26;100383.91;;;13.59;62.07
38780;BME280;29273;49.962;9.768;2023-02-18T05:04:52;100380.66;;;13.57;62.24
38780;BME280;29273;49.962;9.768;2023-02-18T05:07:17;100380.44;;;13.58;62.13
38780;BME280;29273;49.962;9.768;2023-02-18T05:09:43;100380.66;;;13.57;62.18
38780;BME280;29273;49.962;9.768;2023-02-18T05:12:08;100374.53;;;13.56;62.11
38780;BME280;29273;49.962;9.768;2023-02-18T05:14:34;100369.19;;;13.56;62.61
38780;BME280;29273;49.962;9.768;2023-02-18T05:16:59;100373.91;;;13.54;62.80
38780;BME280;29273;49.962;9.768;2023-02-18T05:19:25;100375.72;;;13.54;62.64
38780;BME280;29273;49.962;9.768;2023-02-18T05:21:50;100378.59;;;13.52;62.77
38780;BME280;29273;49.962;9.768;2023-02-18T05:24:16;100375.94;;;13.52;62.83
38780;BME280;29273;49.962;9.768;2023-02-18T05:26:41;100371.66;;;13.51;63.28
38780;BME280;29273;49.962;9.768;2023-02-18T05:29:07;100365.50;;;13.50;63.24
38780;BME280;29273;49.962;9.768;2023-02-18T05:31:32;100363.06;;;13.49;63.73
38780;BME280;29273;49.962;9.768;2023-02-18T05:33:58;100368.41;;;13.49;63.55
38780;BME280;29273;49.962;9.768;2023-02-18T05:36:23;100367.75;;;13.47;63.62
38780;BME280;29273;49.962;9.768;2023-02-18T05:38:49;100359.97;;;13.45;63.58
38780;BME280;29273;49.962;9.768;2023-02-18T05:41:14;100367.16;;;13.45;64.16
38780;BME280;29273;49.962;9.768;2023-02-18T05:43:40;100357.53;;;13.44;64.31
38780;BME280;29273;49.962;9.768;2023-02-18T05:46:24;100352.44;;;13.42;64.15
38780;BME280;29273;49.962;9.768;2023-02-18T05:48:49;100345.69;;;13.40;64.40
38780;BME280;29273;49.962;9.768;2023-02-18T05:51:15;100341.16;;;13.40;64.67
38780;BME280;29273;49.962;9.768;2023-02-18T05:53:41;100340.34;;;13.40;64.27
38780;BME280;29273;49.962;9.768;2023-02-18T05:56:06;100331.78;;;13.38;64.54
38780;BME280;29273;49.962;9.768;2023-02-18T05:58:32;100326.66;;;13.36;64.69
38780;BME280;29273;49.962;9.768;2023-02-18T06:00:57;100333.19;;;13.33;64.84
38780;BME280;29273;49.962;9.768;2023-02-18T06:03:23;100322.56;;;13.33;64.50
38780;BME280;29273;49.962;9.768;2023-02-18T06:05:49;100324.56;;;13.31;64.72
38780;BME280;29273;49.962;9.768;2023-02-18T06:08:15;100322.94;;;13.30;64.86
38780;BME280;29273;49.962;9.768;2023-02-18T06:10:40;100327.66;;;13.28;64.86
38780;BME280;29273;49.962;9.768;2023-02-18T06:13:06;100334.00;;;13.27;64.95
38780;BME280;29273;49.962;9.768;2023-02-18T06:15:31;100326.25;;;13.26;65.13
38780;BME280;29273;49.962;9.768;2023-02-18T06:17:57;100321.13;;;13.24;64.91
38780;BME280;29273;49.962;9.768;2023-02-18T06:20:22;100325.59;;;13.24;65.31
38780;BME280;29273;49.962;9.768;2023-02-18T06:22:48;100325.84;;;13.22;65.53
38780;BME280;29273;49.962;9.768;2023-02-18T06:25:13;100319.69;;;13.22;65.10
38780;BME280;29273;49.962;9.768;2023-02-18T06:27:38;100320.72;;;13.21;65.00
38780;BME280;29273;49.962;9.768;2023-02-18T06:30:04;100328.69;;;13.21;65.13
38780;BME280;29273;49.962;9.768;2023-02-18T06:32:30;100331.34;;;13.21;64.63
38780;BME280;29273;49.962;9.768;2023-02-18T06:34:55;100325.00;;;13.15;64.47
38780;BME280;29273;49.962;9.768;2023-02-18T06:37:21;100325.41;;;13.19;64.08
38780;BME280;29273;49.962;9.768;2023-02-18T06:39:46;100314.75;;;13.19;63.85
38780;BME280;29273;49.962;9.768;2023-02-18T06:42:12;100314.97;;;13.17;63.67
38780;BME280;29273;49.962;9.768;2023-02-18T06:44:37;100312.94;;;13.19;63.37
38780;BME280;29273;49.962;9.768;2023-02-18T06:47:03;100304.78;;;13.14;63.18
38780;BME280;29273;49.962;9.768;2023-02-18T06:49:28;100302.72;;;13.16;63.26
38780;BME280;29273;49.962;9.768;2023-02-18T06:51:54;100308.84;;;13.17;63.07
38780;BME280;29273;49.962;9.768;2023-02-18T06:54:20;100313.97;;;13.18;62.98
38780;BME280;29273;49.962;9.768;2023-02-18T06:56:45;100311.28;;;13.18;62.54
38780;BME280;29273;49.962;9.768;2023-02-18T06:59:11;100307.63;;;13.19;62.29
38780;BME280;29273;49.962;9.768;2023-02-18T07:01:36;100312.94;;;13.19;62.44
38780;BME280;29273;49.962;9.768;2023-02-18T07:04:02;100311.09;;;13.20;62.17
38780;BME280;29273;49.962;9.768;2023-02-18T07:06:27;100310.50;;;13.18;61.81
38780;BME280;29273;49.962;9.768;2023-02-18T07:08:52;100312.94;;;13.19;61.53
38780;BME280;29273;49.962;9.768;2023-02-18T07:11:18;100312.09;;;13.19;61.61
38780;BME280;29273;49.962;9.768;2023-02-18T07:13:43;100311.09;;;13.20;61.25
38780;BME280;29273;49.962;9.768;2023-02-18T07:16:09;100295.53;;;13.17;61.09
38780;BME280;29273;49.962;9.768;2023-02-18T07:18:34;100295.13;;;13.20;60.97
38780;BME280;29273;49.962;9.768;2023-02-18T07:21:00;100292.28;;;13.21;61.01
38780;BME280;29273;49.962;9.768;2023-02-18T07:23:25;100300.25;;;13.21;60.52
38780;BME280;29273;49.962;9.768;2023-02-18T07:25:51;100285.94;;;13.22;60.66
38780;BME280;29273;49.962;9.768;2023-02-18T07:28:16;100282.84;;;13.25;60.71
38780;BME280;29273;49.962;9.768;2023-02-18T07:30:42;100283.69;;;13.26;60.32
38780;BME280;29273;49.962;9.768;2023-02-18T07:33:07;100284.28;;;13.28;59.57
38780;BME280;29273;49.962;9.768;2023-02-18T07:35:33;100276.50;;;13.26;59.12
38780;BME280;29273;49.962;9.768;2023-02-18T07:37:58;100273.22;;;13.31;59.38
38780;BME280;29273;49.962;9.768;2023-02-18T07:40:24;100271.59;;;13.30;58.92
38780;BME280;29273;49.962;9.768;2023-02-18T07:42:49;100275.88;;;13.31;58.50
38780;BME280;29273;49.962;9.768;2023-02-18T07:45:15;100276.13;;;13.36;58.87
38780;BME280;29273;49.962;9.768;2023-02-18T07:47:40;100261.78;;;13.37;58.34
38780;BME280;29273;49.962;9.768;2023-02-18T07:50:07;100267.31;;;13.42;58.50
38780;BME280;29273;49.962;9.768;2023-02-18T07:52:33;100269.53;;;13.39;57.60
38780;BME280;29273;49.962;9.768;2023-02-18T07:54:59;100280.38;;;13.44;57.65
38780;BME280;29273;49.962;9.768;2023-02-18T07:57:24;100267.50;;;13.47;57.55
38780;BME280;29273;49.962;9.768;2023-02-18T07:59:50;100257.06;;;13.46;56.55
38780;BME280;29273;49.962;9.768;2023-02-18T08:02:18;100251.91;;;13.51;56.48
38780;BME280;29273;49.962;9.768;2023-02-18T08:04:44;100257.84;;;13.53;56.48
38780;BME280;29273;49.962;9.768;2023-02-18T08:07:14;100259.03;;;13.57;56.05
38780;BME280;29273;49.962;9.768;2023-02-18T08:09:40;100267.06;;;13.50;55.56
38780;BME280;29273;49.962;9.768;2023-02-18T08:12:06;100256.00;;;13.54;55.78
38780;BME280;29273;49.962;9.768;2023-02-18T08:14:32;100257.44;;;13.56;55.06
38780;BME280;29273;49.962;9.768;2023-02-18T08:16:57;100252.94;;;13.50;53.75
38780;BME280;29273;49.962;9.768;2023-02-18T08:19:23;100235.75;;;13.53;54.42
38780;BME280;29273;49.962;9.768;2023-02-18T08:21:48;100222.25;;;13.54;54.40
38780;BME280;29273;49.962;9.768;2023-02-18T08:24:14;100235.34;;;13.56;54.27
38780;BME280;29273;49.962;9.768;2023-02-18T08:26:39;100214.03;;;13.56;54.34
38780;BME280;29273;49.962;9.768;2023-02-18T08:29:05;100213.81;;;13.57;53.77
38780;BME280;29273;49.962;9.768;2023-02-18T08:31:30;100216.88;;;13.61;53.90
38780;BME280;29273;49.962;9.768;2023-02-18T08:33:57;100202.72;;;13.67;54.42
38780;BME280;29273;49.962;9.768;2023-02-18T08:36:23;100210.69;;;13.67;54.90
38780;BME280;29273;49.962;9.768;2023-02-18T08:38:49;100204.78;;;13.65;54.01
38780;BME280;29273;49.962;9.768;2023-02-18T08:41:15;100204.56;;;13.66;53.71
38780;BME280;29273;49.962;9.768;2023-02-18T08:43:42;100202.72;;;13.67;53.15
38780;BME280;29273;49.962;9.768;2023-02-18T08:46:09;100213.78;;;13.71;53.42
38780;BME280;29273;49.962;9.768;2023-02-18T08:48:34;100220.94;;;13.70;53.23
38780;BME280;29273;49.962;9.768;2023-02-18T08:51:13;100214.75;;;13.76;53.70
38780;BME280;29273;49.962;9.768;2023-02-18T08:53:39;100222.75;;;13.76;53.43
38780;BME280;29273;49.962;9.768;2023-02-18T08:56:06;100235.63;;;13.79;53.59
38780;BME280;29273;49.962;9.768;2023-02-18T08:58:32;100236.44;;;13.80;53.51
38780;BME280;29273;49.962;9.768;2023-02-18T09:01:03;100246.88;;;13.81;53.42
38780;BME280;29273;49.962;9.768;2023-02-18T09:03:29;100242.38;;;13.82;53.01
38780;BME280;29273;49.962;9.768;2023-02-18T09:05:55;100234.75;;;13.85;52.52
38780;BME280;29273;49.962;9.768;2023-02-18T09:08:21;100252.59;;;13.85;52.30
38780;BME280;29273;49.962;9.768;2023-02-18T09:10:46;100237.88;;;13.82;52.08
38780;BME280;29273;49.962;9.768;2023-02-18T09:13:11;100238.09;;;13.81;51.94
38780;BME280;29273;49.962;9.768;2023-02-18T09:15:37;100245.22;;;13.87;52.36
38780;BME280;29273;49.962;9.768;2023-02-18T09:18:03;100246.47;;;13.84;51.59
38780;BME280;29273;49.962;9.768;2023-02-18T09:20:28;100246.47;;;13.84;52.39
38780;BME280;29273;49.962;9.768;2023-02-18T09:22:54;100237.41;;;13.92;52.50
38780;BME280;29273;49.962;9.768;2023-02-18T09:25:20;100246.44;;;13.91;52.29
38780;BME280;29273;49.962;9.768;2023-02-18T09:27:45;100248.66;;;13.94;52.76
38780;BME280;29273;49.962;9.768;2023-02-18T09:30:11;100259.72;;;13.98;52.45
38780;BME280;29273;49.962;9.768;2023-02-18T09:32:36;100255.19;;;13.98;52.69
38780;BME280;29273;49.962;9.768;2023-02-18T09:35:03;100265.00;;;14.04;53.18
38780;BME280;29273;49.962;9.768;2023-02-18T09:37:28;100256.19;;;14.04;52.55
38780;BME280;29273;49.962;9.768;2023-02-18T09:39:54;100271.72;;;14.07;52.97
38780;BME280;29273;49.962;9.768;2023-02-18T09:42:23;100269.47;;;14.11;53.02
38780;BME280;29273;49.962;9.768;2023-02-18T09:44:53;100260.13;;;13.95;54.46
38780;BME280;29273;49.962;9.768;2023-02-18T09:47:38;100280.53;;;14.14;53.81
38780;BME280;29273;49.962;9.768;2023-02-18T09:50:11;100278.44;;;14.16;52.21
38780;BME280;29273;49.962;9.768;2023-02-18T09:52:39;100261.03;;;14.14;52.00
38780;BME280;29273;49.962;9.768;2023-02-18T09:55:21;100271.47;;;14.15;50.86
38780;BME280;29273;49.962;9.768;2023-02-18T09:57:52;100248.91;;;14.24;52.38
38780;BME280;29273;49.962;9.768;2023-02-18T10:00:22;100261.41;;;14.24;51.46
38780;BME280;29273;49.962;9.768;2023-02-18T10:02:54;100259.50;;;14.31;50.27
38780;BME280;29273;49.962;9.768;2023-02-18T10:05:21;100254.31;;;14.11;51.57
38780;BME280;29273;49.962;9.768;2023-02-18T10:07:49;100237.56;;;14.36;50.37
38780;BME280;29273;49.962;9.768;2023-02-18T10:10:39;100243.88;;;14.41;50.89
38780;BME280;29273;49.962;9.768;2023-02-18T10:13:12;100260.59;;;14.49;51.49
38780;BME280;29273;49.962;9.768;2023-02-18T10:15:40;100253.88;;;14.46;49.93
38780;BME280;29273;49.962;9.768;2023-02-18T10:18:18;100261.88;;;14.46;50.68
38780;BME280;29273;49.962;9.768;2023-02-18T10:20:46;100250.41;;;14.46;49.13
38780;BME280;29273;49.962;9.768;2023-02-18T10:23:13;100264.69;;;14.51;50.02
38780;BME280;29273;49.962;9.768;2023-02-18T10:25:43;100276.59;;;14.49;49.81
38780;BME280;29273;49.962;9.768;2023-02-18T10:28:10;100260.00;;;14.47;48.09
38780;BME280;29273;49.962;9.768;2023-02-18T10:30:45;100246.63;;;14.53;49.46
38780;BME280;29273;49.962;9.768;2023-02-18T10:49:14;100238.31;;;14.43;49.22
38780;BME280;29273;49.962;9.768;2023-02-18T10:51:50;100240.22;;;14.36;49.10
38780;BME280;29273;49.962;9.768;2023-02-18T10:54:17;100239.00;;;14.32;48.34
38780;BME280;29273;49.962;9.768;2023-02-18T10:56:49;100242.72;;;14.31;48.03
38780;BME280;29273;49.962;9.768;2023-02-18T10:59:24;100225.91;;;14.30;49.24
38780;BME280;29273;49.962;9.768;2023-02-18T11:02:02;100235.75;;;14.30;50.22
38780;BME280;29273;49.962;9.768;2023-02-18T11:04:37;100228.56;;;14.30;50.01
38780;BME280;29273;49.962;9.768;2023-02-18T11:07:20;100225.13;;;14.23;48.79
38780;BME280;29273;49.962;9.768;2023-02-18T11:09:54;100231.06;;;14.25;49.18
38780;BME280;29273;49.962;9.768;2023-02-18T11:12:43;100223.13;;;14.18;49.20
38780;BME280;29273;49.962;9.768;2023-02-18T11:17:40;100229.69;;;14.16;48.65
38780;BME280;29273;49.962;9.768;2023-02-18T11:20:25;100223.72;;;14.20;49.59
38780;BME280;29273;49.962;9.768;2023-02-18T11:22:56;100219.44;;;14.19;49.00
38780;BME280;29273;49.962;9.768;2023-02-18T11:25:27;100213.50;;;14.17;48.36
38780;BME280;29273;49.962;9.768;2023-02-18T11:28:06;100208.34;;;14.22;48.57
38780;BME280;29273;49.962;9.768;2023-02-18T11:30:52;100197.91;;;14.21;48.47
38780;BME280;29273;49.962;9.768;2023-02-18T11:33:38;100197.94;;;14.14;46.89
38780;BME280;29273;49.962;9.768;2023-02-18T11:38:48;100194.81;;;14.24;47.91
38780;BME280;29273;49.962;9.768;2023-02-18T11:41:17;100197.25;;;14.25;47.22
38780;BME280;29273;49.962;9.768;2023-02-18T11:43:49;100191.88;;;14.32;47.67
38780;BME280;29273;49.962;9.768;2023-02-18T11:46:23;100191.44;;;14.35;48.31
38780;BME280;29273;49.962;9.768;2023-02-18T11:48:50;100184.28;;;14.36;47.44
38780;BME280;29273;49.962;9.768;2023-02-18T11:51:32;100188.28;;;14.45;47.45
38780;BME280;29273;49.962;9.768;2023-02-18T11:56:33;100170.63;;;14.51;46.43
38780;BME280;29273;49.962;9.768;2023-02-18T11:58:59;100177.41;;;14.47;46.38
38780;BME280;29273;49.962;9.768;2023-02-18T12:01:36;100164.00;;;14.60;47.88
38780;BME280;29273;49.962;9.768;2023-02-18T12:04:12;100137.34;;;14.60;46.57
38780;BME280;29273;49.962;9.768;2023-02-18T12:06:49;100146.75;;;14.63;47.55
38780;BME280;29273;49.962;9.768;2023-02-18T12:09:27;100127.50;;;14.60;46.67
38780;BME280;29273;49.962;9.768;2023-02-18T12:11:57;100129.88;;;14.69;47.96
38780;BME280;29273;49.962;9.768;2023-02-18T12:14:24;100131.94;;;14.67;45.84
38780;BME280;29273;49.962;9.768;2023-02-18T12:16:56;100116.94;;;14.72;46.18
38780;BME280;29273;49.962;9.768;2023-02-18T12:22:56;100104.72;;;14.83;47.35
38780;BME280;29273;49.962;9.768;2023-02-18T12:25:50;100137.66;;;14.89;46.99
38780;BME280;29273;49.962;9.768;2023-02-18T12:31:03;100115.66;;;14.93;46.26
38780;BME280;29273;49.962;9.768;2023-02-18T12:33:47;100131.38;;;15.02;47.88
38780;BME280;29273;49.962;9.768;2023-02-18T12:38:55;100105.34;;;14.97;46.25
38780;BME280;29273;49.962;9.768;2023-02-18T12:42:05;100096.13;;;14.99;47.36
38780;BME280;29273;49.962;9.768;2023-02-18T12:44:59;100105.13;;;14.98;47.37
38780;BME280;29273;49.962;9.768;2023-02-18T13:05:56;100116.13;;;15.09;47.66
38780;BME280;29273;49.962;9.768;2023-02-18T13:08:38;100112.63;;;15.08;47.28
38780;BME280;29273;49.962;9.768;2023-02-18T13:14:03;100105.53;;;15.02;46.47
38780;BME280;29273;49.962;9.768;2023-02-18T13:16:33;100126.47;;;14.98;46.39
38780;BME280;29273;49.962;9.768;2023-02-18T13:19:06;100126.03;;;15.02;46.17
38780;BME280;29273;49.962;9.768;2023-02-18T13:21:36;100137.97;;;14.99;46.29
38780;BME280;29273;49.962;9.768;2023-02-18T13:24:08;100127.91;;;15.01;46.74
38780;BME280;29273;49.962;9.768;2023-02-18T13:26:34;100103.97;;;14.94;46.75
38780;BME280;29273;49.962;9.768;2023-02-18T13:35:06;100115.75;;;14.87;47.23
38780;BME280;29273;49.962;9.768;2023-02-18T13:40:26;100121.84;;;14.94;47.59
38780;BME280;29273;49.962;9.768;2023-02-18T13:43:47;100108.78;;;14.86;47.46
38780;BME280;29273;49.962;9.768;2023-02-18T13:48:52;100129.28;;;14.85;47.61
38780;BME280;29273;49.962;9.768;2023-02-18T13:53:51;100139.66;;;14.75;47.83
38780;BME280;29273;49.962;9.768;2023-02-18T13:56:21;100133.66;;;14.79;47.49
38780;BME280;29273;49.962;9.768;2023-02-18T13:58:55;100134.88;;;14.58;48.67
38780;BME280;29273;49.962;9.768;2023-02-18T14:01:36;100127.97;;;14.76;48.31
38780;BME280;29273;49.962;9.768;2023-02-18T14:04:02;100132.94;;;14.72;48.56
38780;BME280;29273;49.962;9.768;2023-02-18T14:06:34;100135.59;;;14.72;48.08
38780;BME280;29273;49.962;9.768;2023-02-18T14:19:54;100142.16;;;14.70;49.71
38780;BME280;29273;49.962;9.768;2023-02-18T14:22:43;100134.25;;;14.63;49.77
38780;BME280;29273;49.962;9.768;2023-02-18T14:27:38;100150.66;;;14.60;49.62
38780;BME280;29273;49.962;9.768;2023-02-18T14:30:28;100143.97;;;14.51;49.72
38780;BME280;29273;49.962;9.768;2023-02-18T14:32:58;100154.19;;;14.54;50.13
38780;BME280;29273;49.962;9.768;2023-02-18T14:41:53;100152.63;;;14.46;50.20
38780;BME280;29273;49.962;9.768;2023-02-18T14:44:23;100161.69;;;14.38;50.31
38780;BME280;29273;49.962;9.768;2023-02-18T14:52:01;100158.28;;;14.31;51.05
38780;BME280;29273;49.962;9.768;2023-02-18T14:54:29;100159.28;;;14.30;50.98
38780;BME280;29273;49.962;9.768;2023-02-18T14:57:02;100160.56;;;14.28;51.51
38780;BME280;29273;49.962;9.768;2023-02-18T14:59:40;100159.34;;;14.23;51.59
38780;BME280;29273;49.962;9.768;2023-02-18T15:02:34;100169.25;;;14.16;51.48
38780;BME280;29273;49.962;9.768;2023-02-18T15:05:21;100169.84;;;14.18;51.74
38780;BME280;29273;49.962;9.768;2023-02-18T15:08:02;100168.22;;;14.17;51.44
38780;BME280;29273;49.962;9.768;2023-02-18T15:13:04;100151.69;;;14.09;52.26